createdAt,value
2019-05-07T00:02:03.422Z,7.96
2019-05-07T00:04:37.543Z,7.95
2019-05-07T00:07:08.284Z,7.90
2019-05-07T00:09:43.088Z,7.86
2019-05-07T00:12:14.813Z,7.87
2019-05-07T00:14:58.155Z,7.87
2019-05-07T00:17:18.660Z,7.87
2019-05-07T00:19:49.286Z,7.86
2019-05-07T00:22:19.800Z,7.86
2019-05-07T00:24:52.259Z,7.87
2019-05-07T00:27:22.773Z,7.87
2019-05-07T00:32:32.672Z,7.90
2019-05-07T00:35:04.390Z,7.86
2019-05-07T00:37:43.113Z,7.88
2019-05-07T00:40:32.198Z,7.86
2019-05-07T00:43:16.388Z,7.79
2019-05-07T00:45:56.920Z,7.80
2019-05-07T00:48:27.757Z,7.78
2019-05-07T00:51:17.235Z,7.73
2019-05-07T00:53:47.993Z,7.78
2019-05-07T00:56:19.123Z,7.80
2019-05-07T00:58:49.740Z,7.77
2019-05-07T01:01:22.694Z,7.71
2019-05-07T01:03:53.469Z,7.71
2019-05-07T01:06:26.590Z,7.71
2019-05-07T01:08:56.360Z,7.70
2019-05-07T01:11:27.235Z,7.71
2019-05-07T01:13:58.056Z,7.62
2019-05-07T01:16:29.375Z,7.57
2019-05-07T01:19:01.912Z,7.57
2019-05-07T01:21:32.718Z,7.61
2019-05-07T01:24:03.886Z,7.55
2019-05-07T01:26:34.623Z,7.54
2019-05-07T01:29:05.341Z,7.55
2019-05-07T01:32:03.116Z,7.59
2019-05-07T01:34:55.468Z,7.59
2019-05-07T01:37:30.012Z,7.54
2019-05-07T01:40:02.874Z,7.52
2019-05-07T01:42:36.256Z,7.41
2019-05-07T01:45:05.877Z,7.38
2019-05-07T01:47:36.464Z,7.32
2019-05-07T01:50:07.376Z,7.35
2019-05-07T01:52:38.852Z,7.39
2019-05-07T01:55:09.477Z,7.36
2019-05-07T01:57:42.067Z,7.35
2019-05-07T02:00:13.183Z,7.35
2019-05-07T02:03:05.904Z,7.31
2019-05-07T02:05:52.692Z,7.31
2019-05-07T02:08:44.288Z,7.31
2019-05-07T02:11:19.262Z,7.30
2019-05-07T02:13:52.973Z,7.31
2019-05-07T02:16:24.687Z,7.28
2019-05-07T02:18:56.646Z,7.28
2019-05-07T02:21:28.531Z,7.27
2019-05-07T02:24:03.170Z,7.25
2019-05-07T02:26:33.747Z,7.19
2019-05-07T02:29:04.600Z,7.20
2019-05-07T02:31:38.880Z,7.23
2019-05-07T02:34:13.798Z,7.19
2019-05-07T02:36:44.075Z,7.17
2019-05-07T02:39:25.082Z,7.18
2019-05-07T02:41:56.974Z,7.21
2019-05-07T02:44:32.720Z,7.21
2019-05-07T02:47:12.939Z,7.12
2019-05-07T02:49:53.557Z,7.12
2019-05-07T02:52:44.645Z,7.14
2019-05-07T02:55:33.430Z,7.14
2019-05-07T02:58:04.060Z,7.17
2019-05-07T03:00:36.353Z,7.16
2019-05-07T03:03:13.787Z,7.20
2019-05-07T03:05:46.223Z,7.19
2019-05-07T03:08:16.879Z,7.21
2019-05-07T03:10:48.795Z,7.19
2019-05-07T03:13:19.615Z,7.21
2019-05-07T03:15:54.195Z,7.18
2019-05-07T03:18:25.339Z,7.19
2019-05-07T03:21:03.449Z,7.22
2019-05-07T03:23:42.870Z,7.19
2019-05-07T03:26:26.597Z,7.20
2019-05-07T03:29:06.571Z,7.20
2019-05-07T03:31:59.184Z,7.20
2019-05-07T03:34:47.465Z,7.15
2019-05-07T03:37:23.402Z,7.09
2019-05-07T03:39:54.266Z,7.11
2019-05-07T03:42:26.125Z,7.12
2019-05-07T03:45:16.729Z,7.11
2019-05-07T03:47:53.920Z,7.11
2019-05-07T03:50:24.181Z,7.11
2019-05-07T03:52:56.090Z,7.10
2019-05-07T03:55:27.730Z,7.07
2019-05-07T03:57:59.599Z,7.05
2019-05-07T04:00:33.064Z,7.01
2019-05-07T04:03:03.785Z,6.98
2019-05-07T04:05:35.170Z,6.93
2019-05-07T04:08:05.852Z,6.91
2019-05-07T04:10:39.016Z,6.95
2019-05-07T04:13:13.769Z,6.96
2019-05-07T04:15:52.385Z,6.97
2019-05-07T04:18:24.063Z,6.95
2019-05-07T04:20:55.122Z,6.92
2019-05-07T04:23:27.048Z,6.94
2019-05-07T04:26:04.909Z,6.90
2019-05-07T04:28:59.618Z,6.88
2019-05-07T04:31:34.890Z,6.89
2019-05-07T04:34:13.444Z,6.87
2019-05-07T04:36:46.671Z,6.88
2019-05-07T04:39:23.212Z,6.89
2019-05-07T04:41:53.301Z,6.91
2019-05-07T04:44:24.195Z,6.95
2019-05-07T04:46:54.896Z,6.94
2019-05-07T04:49:25.620Z,6.97
2019-05-07T04:52:12.524Z,6.99
2019-05-07T04:54:45.723Z,6.90
2019-05-07T04:57:28.312Z,6.88
2019-05-07T05:00:03.496Z,6.83
2019-05-07T05:02:49.232Z,6.86
2019-05-07T05:05:23.592Z,6.90
2019-05-07T05:07:53.587Z,6.92
2019-05-07T05:10:24.675Z,6.95
2019-05-07T05:12:55.262Z,6.96
2019-05-07T05:15:27.006Z,6.89
2019-05-07T05:17:57.609Z,6.97
2019-05-07T05:20:47.072Z,6.97
2019-05-07T05:23:35.154Z,7.01
2019-05-07T05:26:05.766Z,7.07
2019-05-07T05:28:36.344Z,7.08
2019-05-07T05:31:07.919Z,7.08
2019-05-07T05:33:42.016Z,7.12
2019-05-07T05:36:12.685Z,7.16
2019-05-07T05:38:43.199Z,7.20
2019-05-07T05:41:15.762Z,7.20
2019-05-07T05:43:57.507Z,7.28
2019-05-07T05:46:31.815Z,7.27
2019-05-07T05:49:02.698Z,7.31
2019-05-07T05:51:44.200Z,7.37
2019-05-07T05:54:39.406Z,7.40
2019-05-07T05:57:18.108Z,7.44
2019-05-07T05:59:56.045Z,7.46
2019-05-07T06:02:45.585Z,7.47
2019-05-07T06:05:35.130Z,7.49
2019-05-07T06:08:17.483Z,7.54
2019-05-07T06:11:08.910Z,7.56
2019-05-07T06:13:46.706Z,7.64
2019-05-07T06:16:24.331Z,7.67
2019-05-07T06:19:12.986Z,7.63
2019-05-07T06:22:12.782Z,7.69
2019-05-07T06:24:48.634Z,7.71
2019-05-07T06:27:19.224Z,7.78
2019-05-07T06:29:52.383Z,7.80
2019-05-07T06:32:23.245Z,7.82
2019-05-07T06:34:53.833Z,7.86
2019-05-07T06:37:24.458Z,7.87
2019-05-07T06:40:13.485Z,7.91
2019-05-07T06:43:13.838Z,7.97
2019-05-07T06:45:48.763Z,8.03
2019-05-07T06:48:34.715Z,8.06
2019-05-07T06:50:57.718Z,8.11
2019-05-07T06:53:33.253Z,8.14
2019-05-07T06:56:03.845Z,8.16
2019-05-07T06:58:42.743Z,8.18
2019-05-07T07:01:38.369Z,8.20
2019-05-07T07:04:28.424Z,8.28
2019-05-07T07:07:37.083Z,8.31
2019-05-07T07:10:27.784Z,8.45
2019-05-07T07:12:58.394Z,8.47
2019-05-07T07:15:29.018Z,8.52
2019-05-07T07:17:59.677Z,8.56
2019-05-07T07:20:32.430Z,8.61
2019-05-07T07:23:02.713Z,8.65
2019-05-07T07:25:33.297Z,8.73
2019-05-07T07:28:03.903Z,8.82
2019-05-07T07:30:59.077Z,8.90
2019-05-07T07:33:32.549Z,8.94
2019-05-07T07:36:03.221Z,9.05
2019-05-07T07:38:34.053Z,9.15
2019-05-07T07:41:23.948Z,9.21
2019-05-07T07:43:57.800Z,9.22
2019-05-07T07:46:28.416Z,9.32
2019-05-07T07:49:07.871Z,9.39
2019-05-07T07:51:41.499Z,9.47
2019-05-07T07:54:06.150Z,9.58
2019-05-07T07:57:02.333Z,9.68
2019-05-07T07:59:55.061Z,9.78
2019-05-07T08:02:38.666Z,9.86
2019-05-07T08:05:12.377Z,9.89
2019-05-07T08:07:42.807Z,9.98
2019-05-07T08:10:15.115Z,10.06
2019-05-07T08:12:45.645Z,10.15
2019-05-07T08:15:21.230Z,10.13
2019-05-07T08:17:49.569Z,10.23
2019-05-07T08:20:22.315Z,10.31
2019-05-07T08:22:52.906Z,10.40
2019-05-07T08:25:42.702Z,10.47
2019-05-07T08:28:13.349Z,10.51
2019-05-07T08:30:46.253Z,10.55
2019-05-07T08:33:24.466Z,10.58
2019-05-07T08:36:23.029Z,10.65
2019-05-07T08:38:54.788Z,10.75
2019-05-07T08:41:29.349Z,10.83
2019-05-07T08:44:12.946Z,10.83
2019-05-07T08:47:17.829Z,10.80
2019-05-07T08:49:48.347Z,10.84
2019-05-07T08:52:19.015Z,10.80
2019-05-07T08:54:51.734Z,10.88
2019-05-07T08:57:22.770Z,10.90
2019-05-07T09:00:00.349Z,10.90
2019-05-07T09:02:25.904Z,11.01
2019-05-07T09:04:57.599Z,11.06
2019-05-07T09:07:28.295Z,10.95
2019-05-07T09:09:58.859Z,10.90
2019-05-07T09:12:31.702Z,10.95
2019-05-07T09:15:02.332Z,10.99
2019-05-07T09:17:33.273Z,11.04
2019-05-07T09:20:03.873Z,11.05
2019-05-07T09:22:34.537Z,11.10
2019-05-07T09:25:05.491Z,11.17
2019-05-07T09:27:45.646Z,11.22
2019-05-07T09:30:41.937Z,11.26
2019-05-07T09:33:32.766Z,11.37
2019-05-07T09:36:03.431Z,11.33
2019-05-07T09:38:34.063Z,11.42
2019-05-07T09:41:05.835Z,11.51
2019-05-07T09:43:36.518Z,11.54
2019-05-07T09:46:07.111Z,11.58
2019-05-07T09:48:37.754Z,11.68
2019-05-07T09:51:08.298Z,11.67
2019-05-07T09:53:38.912Z,11.72
2019-05-07T09:56:09.489Z,11.77
2019-05-07T09:58:42.424Z,11.76
2019-05-07T10:01:12.712Z,11.86
2019-05-07T10:03:43.391Z,11.83
2019-05-07T10:06:14.017Z,11.88
2019-05-07T10:08:44.665Z,11.87
2019-05-07T10:11:22.524Z,11.84
2019-05-07T10:14:06.977Z,11.93
2019-05-07T10:16:46.782Z,11.94
2019-05-07T10:19:17.441Z,11.96
2019-05-07T10:21:48.004Z,12.02
2019-05-07T10:24:22.086Z,12.02
2019-05-07T10:26:53.267Z,12.05
2019-05-07T10:29:24.475Z,12.00
2019-05-07T10:31:55.052Z,11.98
2019-05-07T10:34:25.854Z,12.03
2019-05-07T10:36:56.483Z,12.21
2019-05-07T10:39:27.073Z,12.29
2019-05-07T10:42:01.829Z,12.21
2019-05-07T10:44:43.172Z,12.24
2019-05-07T10:47:30.783Z,12.23
2019-05-07T10:50:38.703Z,12.29
2019-05-07T10:53:04.969Z,12.31
2019-05-07T10:55:35.594Z,12.33
2019-05-07T10:58:06.188Z,12.32
2019-05-07T11:00:37.370Z,12.34
2019-05-07T11:03:09.145Z,12.28
2019-05-07T11:05:41.757Z,12.37
2019-05-07T11:08:12.153Z,12.39
2019-05-07T11:10:42.826Z,12.37
2019-05-07T11:13:13.391Z,12.43
2019-05-07T11:15:45.751Z,12.50
2019-05-07T11:18:21.829Z,12.49
2019-05-07T11:20:53.530Z,12.59
2019-05-07T11:23:24.299Z,12.65
2019-05-07T11:25:54.910Z,12.63
2019-05-07T11:28:25.497Z,12.74
2019-05-07T11:30:56.088Z,12.72
2019-05-07T11:33:26.664Z,12.75
2019-05-07T11:35:57.332Z,12.85
2019-05-07T11:38:27.961Z,12.81
2019-05-07T11:40:58.563Z,12.84
2019-05-07T11:43:53.876Z,12.82
2019-05-07T11:46:32.785Z,12.88
2019-05-07T11:49:24.375Z,13.00
2019-05-07T11:52:06.459Z,13.04
2019-05-07T11:54:37.018Z,13.07
2019-05-07T11:57:07.674Z,13.09
2019-05-07T11:59:39.441Z,13.07
2019-05-07T12:02:12.024Z,12.97
2019-05-07T12:04:42.358Z,13.12
2019-05-07T12:07:13.056Z,13.15
2019-05-07T12:09:44.955Z,13.13
2019-05-07T12:12:15.548Z,13.17
2019-05-07T12:14:46.119Z,13.18
2019-05-07T12:17:16.751Z,13.21
2019-05-07T12:19:47.346Z,13.27
2019-05-07T12:22:36.815Z,13.18
2019-05-07T12:25:08.658Z,13.13
2019-05-07T12:27:39.268Z,13.30
2019-05-07T12:30:14.974Z,13.36
2019-05-07T12:32:59.419Z,13.39
2019-05-07T12:35:29.995Z,13.46
2019-05-07T12:38:02.055Z,13.39
2019-05-07T12:40:32.864Z,13.48
2019-05-07T12:43:03.509Z,13.52
2019-05-07T12:45:34.123Z,13.46
2019-05-07T12:48:04.785Z,13.34
2019-05-07T12:50:35.526Z,13.45
2019-05-07T12:53:12.431Z,13.34
2019-05-07T12:55:52.129Z,13.34
2019-05-07T12:58:22.723Z,13.38
2019-05-07T13:01:01.431Z,13.43
2019-05-07T13:03:37.499Z,13.42
2019-05-07T13:06:08.222Z,13.55
2019-05-07T13:08:38.784Z,13.58
2019-05-07T13:11:09.345Z,13.43
2019-05-07T13:13:39.925Z,13.43
2019-05-07T13:16:12.648Z,13.58
2019-05-07T13:18:42.953Z,13.58
2019-05-07T13:21:14.820Z,13.69
2019-05-07T13:23:45.441Z,13.81
2019-05-07T13:26:16.026Z,13.80
2019-05-07T13:28:46.571Z,13.95
2019-05-07T13:31:22.288Z,13.91
2019-05-07T13:33:56.204Z,13.71
2019-05-07T13:36:28.747Z,13.72
2019-05-07T13:39:17.338Z,13.66
2019-05-07T13:41:56.900Z,13.80
2019-05-07T13:44:46.604Z,13.88
2019-05-07T13:47:25.469Z,13.83
2019-05-07T13:49:57.304Z,13.74
2019-05-07T13:52:27.897Z,13.69
2019-05-07T13:55:00.653Z,13.67
2019-05-07T13:57:32.633Z,13.79
2019-05-07T14:00:05.369Z,13.91
2019-05-07T14:02:36.560Z,14.05
2019-05-07T14:05:08.024Z,14.12
2019-05-07T14:07:42.011Z,14.13
2019-05-07T14:10:13.303Z,14.23
2019-05-07T14:12:52.026Z,14.32
2019-05-07T14:15:24.123Z,14.36
2019-05-07T14:17:56.898Z,14.53
2019-05-07T14:20:27.661Z,14.57
2019-05-07T14:23:02.187Z,14.60
2019-05-07T14:25:36.556Z,14.73
2019-05-07T14:28:07.197Z,14.76
2019-05-07T14:30:38.680Z,14.85
2019-05-07T14:33:16.894Z,14.85
2019-05-07T14:35:59.690Z,14.83
2019-05-07T14:38:40.035Z,14.81
2019-05-07T14:41:12.903Z,14.79
2019-05-07T14:43:58.536Z,14.69
2019-05-07T14:46:43.559Z,14.80
2019-05-07T14:49:02.875Z,14.90
2019-05-07T14:51:34.004Z,14.99
2019-05-07T14:54:05.807Z,14.88
2019-05-07T14:56:36.668Z,14.86
2019-05-07T14:59:07.774Z,14.79
2019-05-07T15:01:39.781Z,14.79
2019-05-07T15:04:12.876Z,14.61
2019-05-07T15:06:46.557Z,14.63
2019-05-07T15:09:16.558Z,14.66
2019-05-07T15:11:52.586Z,14.69
2019-05-07T15:14:23.189Z,14.65
2019-05-07T15:16:56.235Z,14.83
2019-05-07T15:19:27.049Z,14.95
2019-05-07T15:22:17.062Z,15.02
2019-05-07T15:24:48.023Z,15.22
2019-05-07T15:27:19.373Z,15.30
2019-05-07T15:29:52.654Z,15.42
2019-05-07T15:32:23.843Z,15.45
2019-05-07T15:34:55.681Z,15.46
2019-05-07T15:37:27.832Z,15.39
2019-05-07T15:39:59.392Z,15.31
2019-05-07T15:42:32.670Z,15.27
2019-05-07T15:45:03.246Z,15.23
2019-05-07T15:47:42.127Z,15.23
2019-05-07T15:50:15.293Z,15.26
2019-05-07T15:53:07.582Z,15.20
2019-05-07T15:55:41.799Z,15.14
2019-05-07T15:58:12.905Z,15.09
2019-05-07T16:00:44.776Z,15.04
2019-05-07T16:03:24.985Z,14.97
2019-05-07T16:05:57.960Z,15.05
2019-05-07T16:08:32.015Z,15.05
2019-05-07T16:11:03.831Z,15.02
2019-05-07T16:13:37.250Z,14.94
2019-05-07T16:16:09.321Z,14.96
2019-05-07T16:19:01.897Z,14.91
2019-05-07T16:21:33.225Z,14.87
2019-05-07T16:24:04.946Z,14.89
2019-05-07T16:26:37.476Z,14.83
2019-05-07T16:29:08.453Z,14.77
2019-05-07T16:31:40.377Z,14.82
2019-05-07T16:34:12.689Z,14.85
2019-05-07T16:36:44.011Z,14.87
2019-05-07T16:39:15.128Z,14.85
2019-05-07T16:41:46.140Z,14.77
2019-05-07T16:44:17.041Z,14.76
2019-05-07T16:46:49.279Z,14.79
2019-05-07T16:49:22.285Z,14.80
2019-05-07T16:51:53.707Z,14.81
2019-05-07T16:54:24.813Z,14.85
2019-05-07T16:57:33.873Z,14.88
2019-05-07T17:00:06.607Z,14.91
2019-05-07T17:02:43.521Z,14.74
2019-05-07T17:05:15.601Z,14.68
2019-05-07T17:07:55.707Z,14.76
2019-05-07T17:10:27.927Z,14.80
2019-05-07T17:12:58.852Z,14.72
2019-05-07T17:15:31.003Z,14.79
2019-05-07T17:18:03.538Z,14.85
2019-05-07T17:20:34.569Z,14.83
2019-05-07T17:23:05.776Z,14.81
2019-05-07T17:25:39.996Z,14.76
2019-05-07T17:28:12.655Z,14.76
2019-05-07T17:30:44.172Z,14.73
2019-05-07T17:33:16.271Z,14.67
2019-05-07T17:35:51.789Z,14.74
2019-05-07T17:38:23.292Z,14.73
2019-05-07T17:40:54.351Z,14.73
2019-05-07T17:43:25.344Z,14.72
2019-05-07T17:45:57.332Z,14.66
2019-05-07T17:48:28.474Z,14.67
2019-05-07T17:51:19.344Z,14.59
2019-05-07T17:53:59.822Z,14.56
2019-05-07T17:56:24.725Z,14.51
2019-05-07T17:59:02.765Z,14.43
2019-05-07T18:01:55.450Z,14.37
2019-05-07T18:04:28.842Z,14.30
2019-05-07T18:07:00.469Z,14.25
2019-05-07T18:10:05.680Z,14.26
2019-05-07T18:12:37.631Z,14.17
2019-05-07T18:15:12.677Z,14.10
2019-05-07T18:18:06.478Z,14.04
2019-05-07T18:20:42.309Z,13.93
2019-05-07T18:23:16.870Z,13.82
2019-05-07T18:25:47.308Z,13.73
2019-05-07T18:28:18.715Z,13.63
2019-05-07T18:30:54.080Z,13.48
2019-05-07T18:34:47.750Z,13.33
2019-05-07T18:37:33.492Z,13.16
2019-05-07T18:40:24.593Z,12.86
2019-05-07T18:43:00.342Z,12.72
2019-05-07T18:45:36.273Z,12.63
2019-05-07T18:48:08.008Z,12.68
2019-05-07T18:50:41.841Z,12.69
2019-05-07T18:53:13.503Z,12.69
2019-05-07T18:55:45.526Z,12.58
2019-05-07T18:58:17.417Z,12.48
2019-05-07T19:00:51.965Z,12.29
2019-05-07T19:03:25.262Z,12.12
2019-05-07T19:05:56.924Z,12.08
2019-05-07T19:08:28.590Z,12.04
2019-05-07T19:10:59.163Z,11.89
2019-05-07T19:13:32.640Z,11.88
2019-05-07T19:16:03.584Z,11.80
2019-05-07T19:18:45.064Z,11.74
2019-05-07T19:21:16.952Z,11.72
2019-05-07T19:23:48.550Z,11.62
2019-05-07T19:26:25.488Z,11.53
2019-05-07T19:29:04.577Z,11.51
2019-05-07T19:31:35.279Z,11.51
2019-05-07T19:34:06.524Z,11.46
2019-05-07T19:36:45.586Z,11.42
2019-05-07T19:39:20.674Z,11.23
2019-05-07T19:41:52.747Z,11.22
2019-05-07T19:44:33.402Z,11.11
2019-05-07T19:47:05.754Z,10.93
2019-05-07T19:49:44.591Z,10.89
2019-05-07T19:52:15.425Z,10.89
2019-05-07T19:54:57.909Z,10.87
2019-05-07T19:57:25.445Z,10.90
2019-05-07T19:59:56.144Z,10.87
2019-05-07T20:02:32.153Z,10.79
2019-05-07T20:05:05.452Z,10.77
2019-05-07T20:07:42.301Z,10.60
2019-05-07T20:10:16.625Z,10.43
2019-05-07T20:12:48.297Z,10.51
2019-05-07T20:15:22.457Z,10.49
2019-05-07T20:17:56.350Z,10.45
2019-05-07T20:20:28.258Z,10.40
2019-05-07T20:23:02.419Z,10.45
2019-05-07T20:25:38.825Z,10.47
2019-05-07T20:28:12.716Z,10.47
2019-05-07T20:30:44.237Z,10.38
2019-05-07T20:33:24.048Z,10.30
2019-05-07T20:35:56.090Z,10.23
2019-05-07T20:38:27.985Z,10.27
2019-05-07T20:40:59.974Z,10.20
2019-05-07T20:43:32.736Z,10.17
2019-05-07T20:46:05.067Z,10.13
2019-05-07T20:48:38.962Z,10.08
2019-05-07T20:51:12.196Z,10.14
2019-05-07T20:53:58.285Z,10.23
2019-05-07T20:56:36.660Z,10.16
2019-05-07T20:59:12.485Z,10.13
2019-05-07T21:01:43.488Z,10.19
2019-05-07T21:04:15.484Z,10.14
2019-05-07T21:06:53.081Z,10.02
2019-05-07T21:09:23.911Z,10.09
2019-05-07T21:11:54.508Z,10.04
2019-05-07T21:14:27.465Z,9.85
2019-05-07T21:17:04.223Z,9.79
2019-05-07T21:19:35.863Z,9.89
2019-05-07T21:22:09.864Z,9.98
2019-05-07T21:24:42.284Z,9.86
2019-05-07T21:27:14.162Z,9.64
2019-05-07T21:29:54.438Z,9.67
2019-05-07T21:32:25.091Z,9.68
2019-05-07T21:34:57.094Z,9.70
2019-05-07T21:37:32.374Z,9.70
2019-05-07T21:40:03.489Z,9.68
2019-05-07T21:42:35.381Z,9.67
2019-05-07T21:45:06.484Z,9.53
2019-05-07T21:47:45.022Z,9.48
2019-05-07T21:50:19.116Z,9.31
2019-05-07T21:52:56.296Z,9.33
2019-05-07T21:55:58.817Z,9.24
2019-05-07T21:58:54.376Z,9.15
2019-05-07T22:01:38.443Z,9.06
2019-05-07T22:04:09.411Z,9.15
2019-05-07T22:06:45.512Z,9.01
2019-05-07T22:09:24.506Z,9.03
2019-05-07T22:11:55.485Z,8.95
2019-05-07T22:14:28.349Z,8.86
2019-05-07T22:17:02.029Z,8.89
2019-05-07T22:19:35.646Z,8.79
2019-05-07T22:22:07.458Z,8.72
2019-05-07T22:24:39.442Z,8.74
2019-05-07T22:27:12.830Z,8.54
2019-05-07T22:29:43.772Z,8.49
2019-05-07T22:32:23.130Z,8.46
2019-05-07T22:35:05.552Z,8.45
2019-05-07T22:37:36.356Z,8.43
2019-05-07T22:40:07.631Z,8.34
2019-05-07T22:42:44.473Z,8.28
2019-05-07T22:45:22.801Z,8.16
2019-05-07T22:47:54.926Z,8.14
2019-05-07T22:50:26.925Z,8.00
2019-05-07T22:52:58.816Z,8.02
2019-05-07T22:55:29.598Z,8.01
2019-05-07T22:58:08.472Z,8.00
2019-05-07T23:01:02.339Z,7.97
2019-05-07T23:03:35.021Z,7.95
2019-05-07T23:06:12.117Z,7.96
2019-05-07T23:08:48.330Z,7.89
2019-05-07T23:11:19.020Z,7.93
2019-05-07T23:13:49.537Z,7.85
2019-05-07T23:16:20.092Z,7.83
2019-05-07T23:18:57.789Z,7.80
2019-05-07T23:21:28.619Z,7.78
2019-05-07T23:24:00.441Z,7.74
2019-05-07T23:26:32.323Z,7.70
2019-05-07T23:29:03.613Z,7.66
2019-05-07T23:31:35.605Z,7.64
2019-05-07T23:34:07.530Z,7.69
2019-05-07T23:36:39.125Z,7.64
2019-05-07T23:39:12.704Z,7.60
2019-05-07T23:41:52.835Z,7.53
2019-05-07T23:44:29.408Z,7.41
2019-05-07T23:47:03.161Z,7.51
2019-05-07T23:49:38.924Z,7.53
2019-05-07T23:52:09.859Z,7.44
2019-05-07T23:54:42.457Z,7.35
2019-05-07T23:57:15.437Z,7.36
2019-05-07T23:59:52.819Z,7.37
